Lompoc/Vandenberg AFB, California
Current Conditions -  °F | °C
As of 6:55 AM on Saturday 20 Dec 2014 (Local Time) from KVBG Reporting Station
Overcast Overcast  
Wind Chill: 51°   Ceiling: 2300
Heat Index: 51°   Visibility: 10mi
Dew Point: 49°   Wind: 6mph
Humidity: 92%   Direction: 100°E
Pressure: 30.19"   Gusts: NA
Location:  34.75°N, 120.57°W
Report Text: KVBG 201455Z AUTO 10005KT 10SM SCT016 BKN023 OVC085 11/09 A3019 RMK AO2 CIG 015 RWY12 SLP215 T01060094 53005 TSNO $
Loading
Personal Weather Stations






























Interactive Weather Map New forecast layout! Learn more

10-Day Weather Forecast

Advertisements
Track Severe Weather on mobile